Time;durP1;ratioP1;P1;durP2;ratioP2;P2;SDS_P1;SDS_P2;PMS_P1;PMS_P2;Temp;Humidity;BMP_temperature;BMP_pressure;BME280_temperature;BME280_humidity;BME280_pressure;Samples;Min_cycle;Max_cycle;Signal;HPM_P1;HPM_P2
2021/12/25 00:00:11;;;;;;;58.55;23.05;;;;;;;4.03;100.00;100514.63;5014318;28;20379;-72
2021/12/25 00:02:37;;;;;;;58.78;22.10;;;;;;;3.97;100.00;100516.50;5025620;28;20045;-72
2021/12/25 00:05:04;;;;;;;53.72;21.17;;;;;;;3.82;100.00;100524.56;5035342;28;20076;-72
2021/12/25 00:07:29;;;;;;;54.97;22.17;;;;;;;3.78;100.00;100515.38;5035898;28;20041;-71
2021/12/25 00:09:55;;;;;;;59.92;23.55;;;;;;;3.81;100.00;100528.31;5035790;28;20603;-71
2021/12/25 00:12:20;;;;;;;57.53;21.05;;;;;;;3.83;100.00;100518.09;5033354;28;20044;-71
2021/12/25 00:14:46;;;;;;;52.60;20.45;;;;;;;3.62;100.00;100523.44;5033362;28;20040;-70
2021/12/25 00:17:11;;;;;;;45.28;18.27;;;;;;;3.65;100.00;100522.09;5033050;28;20053;-71
2021/12/25 00:19:36;;;;;;;52.08;19.80;;;;;;;3.83;100.00;100523.47;5035821;28;20036;-73
2021/12/25 00:22:02;;;;;;;49.38;19.73;;;;;;;3.78;100.00;100526.16;5036123;28;20052;-72
2021/12/25 00:24:28;;;;;;;42.53;16.15;;;;;;;3.55;100.00;100533.66;5048870;28;20080;-72
2021/12/25 00:27:09;;;;;;;43.25;17.77;;;;;;;3.60;100.00;100536.34;5053625;28;20067;-73
2021/12/25 00:32:25;;;;;;;45.05;19.40;;;;;;;3.52;100.00;100539.59;5051381;28;20489;-73
2021/12/25 00:34:51;;;;;;;47.33;19.90;;;;;;;3.48;100.00;100538.47;5053622;28;20062;-71
2021/12/25 00:37:18;;;;;;;47.30;20.48;;;;;;;3.45;100.00;100533.63;5054725;28;20358;-72
2021/12/25 00:39:43;;;;;;;49.58;19.10;;;;;;;3.42;100.00;100538.72;5054206;28;20047;-72
2021/12/25 00:42:10;;;;;;;49.50;18.83;;;;;;;3.30;100.00;100547.84;5054662;28;20036;-72
2021/12/25 00:44:36;;;;;;;53.78;22.08;;;;;;;3.45;100.00;100551.69;5054929;28;20045;-71
2021/12/25 00:47:02;;;;;;;50.65;21.08;;;;;;;3.42;100.00;100560.28;5037777;28;20538;-71
2021/12/25 00:49:28;;;;;;;52.83;22.85;;;;;;;3.45;100.00;100557.88;5021562;28;20047;-72
2021/12/25 00:51:53;;;;;;;57.45;23.65;;;;;;;3.36;100.00;100556.75;5012499;28;20045;-72
2021/12/25 00:54:19;;;;;;;54.75;23.25;;;;;;;3.16;100.00;100569.03;5014121;28;20057;-72
2021/12/25 00:56:44;;;;;;;55.83;24.38;;;;;;;2.95;100.00;100564.63;5014809;28;20129;-71
2021/12/25 00:59:10;;;;;;;63.03;24.15;;;;;;;2.88;100.00;100570.25;5013951;28;20125;-71
2021/12/25 01:01:37;;;;;;;62.83;25.33;;;;;;;2.71;100.00;100562.31;5013591;28;20794;-72
2021/12/25 01:04:03;;;;;;;55.25;24.42;;;;;;;2.72;100.00;100574.69;5034029;28;20511;-72
2021/12/25 01:06:28;;;;;;;64.72;26.17;;;;;;;2.84;100.00;100565.63;5032154;28;20444;-70
2021/12/25 01:08:54;;;;;;;60.25;26.70;;;;;;;2.80;100.00;100564.53;5031803;28;20117;-72
2021/12/25 01:11:24;;;;;;;63.95;26.23;;;;;;;2.90;100.00;100575.34;5032060;28;20045;-72
2021/12/25 01:13:57;;;;;;;59.45;26.20;;;;;;;2.85;100.00;100578.00;5034106;28;20037;-73
2021/12/25 01:17:12;;;;;;;62.88;26.92;;;;;;;2.69;100.00;100569.81;5033802;28;20124;-72
2021/12/25 01:20:55;;;;;;;70.45;28.65;;;;;;;2.85;100.00;100572.63;5032538;28;20300;-72
2021/12/25 01:40:16;;;;;;;62.28;26.98;;;;;;;2.61;100.00;100578.34;5033143;28;20465;-71
2021/12/25 01:48:25;;;;;;;57.67;26.88;;;;;;;2.40;100.00;100590.84;5029460;28;20044;-71
2021/12/25 01:50:52;;;;;;;72.45;29.92;;;;;;;2.29;100.00;100591.00;5012398;28;20146;-72
2021/12/25 01:53:18;;;;;;;65.38;31.10;;;;;;;2.37;100.00;100585.16;5011456;28;20032;-72
2021/12/25 01:55:43;;;;;;;67.25;29.85;;;;;;;2.30;100.00;100587.22;5011537;28;20073;-72
2021/12/25 01:58:09;;;;;;;64.32;26.65;;;;;;;2.18;100.00;100585.53;5012314;28;20075;-71
2021/12/25 02:00:38;;;;;;;65.03;29.92;;;;;;;2.26;100.00;100576.97;5011572;28;20619;-72
2021/12/25 02:03:05;;;;;;;70.10;30.17;;;;;;;2.26;100.00;100587.75;5024533;28;20067;-73
2021/12/25 02:05:31;;;;;;;71.68;30.20;;;;;;;2.23;100.00;100593.63;5032720;28;20045;-72
2021/12/25 02:07:57;;;;;;;67.65;30.00;;;;;;;2.20;100.00;100588.75;5036999;28;20059;-72
2021/12/25 02:10:23;;;;;;;67.47;28.90;;;;;;;2.26;100.00;100587.75;5035033;28;20509;-72
2021/12/25 02:12:49;;;;;;;70.97;30.80;;;;;;;2.26;100.00;100590.44;5035041;28;20466;-71
2021/12/25 02:15:19;;;;;;;73.80;31.45;;;;;;;2.21;100.00;100603.84;5018422;28;20470;-72
2021/12/25 02:21:03;;;;;;;69.68;30.48;;;;;;;2.17;100.00;100608.09;5036790;28;20551;-72
2021/12/25 02:23:31;;;;;;;70.20;29.23;;;;;;;2.10;100.00;100610.19;5037013;28;20059;-72
2021/12/25 02:25:57;;;;;;;71.60;30.45;;;;;;;2.13;100.00;100604.31;5030130;28;20371;-72
2021/12/25 02:28:25;;;;;;;65.05;28.67;;;;;;;2.19;100.00;100600.59;5014972;28;20049;-72
2021/12/25 02:30:53;;;;;;;63.50;27.23;;;;;;;2.16;100.00;100603.81;4998744;28;20091;-72
2021/12/25 02:33:19;;;;;;;63.63;28.00;;;;;;;2.04;100.00;100597.75;5017043;28;20055;-72
2021/12/25 02:35:45;;;;;;;65.30;29.63;;;;;;;2.16;100.00;100598.41;5015636;28;20037;-72
2021/12/25 02:38:10;;;;;;;65.90;30.85;;;;;;;2.29;100.00;100596.38;4999311;28;20034;-71
2021/12/25 02:40:36;;;;;;;67.20;28.85;;;;;;;2.12;100.00;100591.91;5015236;28;20110;-72
2021/12/25 02:43:02;;;;;;;63.50;27.00;;;;;;;1.97;100.00;100589.88;5015442;28;20045;-71
2021/12/25 02:45:28;;;;;;;54.17;25.80;;;;;;;2.04;100.00;100595.88;5021199;28;20249;-73
2021/12/25 02:48:04;;;;;;;70.22;30.98;;;;;;;2.01;100.00;100600.97;5035345;28;20124;-71
2021/12/25 02:50:32;;;;;;;65.80;29.45;;;;;;;2.06;100.00;100587.53;5015045;28;20123;-72
2021/12/25 02:53:00;;;;;;;68.85;27.92;;;;;;;1.97;100.00;100578.31;5014706;28;20041;-72
2021/12/25 02:55:26;;;;;;;76.45;32.40;;;;;;;1.88;100.00;100579.81;5014583;28;20140;-72
2021/12/25 02:57:52;;;;;;;60.63;24.80;;;;;;;1.81;100.00;100577.34;5015764;28;20076;-72
2021/12/25 03:00:23;;;;;;;66.03;31.10;;;;;;;1.94;100.00;100584.19;5014738;28;20127;-72
2021/12/25 03:02:49;;;;;;;75.55;31.08;;;;;;;1.87;100.00;100583.59;5026720;28;20354;-72
2021/12/25 03:05:14;;;;;;;70.15;30.38;;;;;;;1.92;100.00;100580.94;5034429;28;20041;-73
2021/12/25 03:07:40;;;;;;;67.35;26.77;;;;;;;1.49;100.00;100585.28;5034759;28;20110;-71
2021/12/25 03:10:07;;;;;;;67.68;27.83;;;;;;;1.63;100.00;100588.41;5034603;28;20517;-73
2021/12/25 03:12:38;;;;;;;71.72;26.67;;;;;;;1.61;100.00;100588.66;5034236;28;20468;-73
2021/12/25 03:15:12;;;;;;;69.47;28.10;;;;;;;1.70;100.00;100589.03;5034430;28;20041;-73
2021/12/25 03:17:38;;;;;;;62.05;24.42;;;;;;;1.52;100.00;100604.41;5034528;28;20041;-73
2021/12/25 03:20:06;;;;;;;59.28;25.02;;;;;;;1.42;100.00;100598.06;5034570;28;20040;-73
2021/12/25 03:22:33;;;;;;;66.10;27.33;;;;;;;1.50;100.00;100605.72;5034115;28;20116;-71
2021/12/25 03:24:59;;;;;;;56.42;23.33;;;;;;;1.40;100.00;100584.91;5035999;28;20634;-72
2021/12/25 03:27:24;;;;;;;67.70;26.17;;;;;;;1.40;100.00;100601.03;5036340;28;20084;-72
2021/12/25 03:29:51;;;;;;;60.33;22.65;;;;;;;1.34;100.00;100602.84;5034735;28;20041;-71
2021/12/25 03:32:17;;;;;;;55.67;22.67;;;;;;;1.32;100.00;100610.31;5034862;28;20032;-73
2021/12/25 03:34:43;;;;;;;52.22;23.38;;;;;;;1.23;100.00;100614.50;5033740;28;20103;-73
2021/12/25 03:37:09;;;;;;;45.20;21.10;;;;;;;1.09;100.00;100610.53;5034186;28;20120;-71
2021/12/25 03:39:34;;;;;;;49.40;21.63;;;;;;;1.16;100.00;100613.84;5035493;28;20427;-72
2021/12/25 03:41:59;;;;;;;53.30;22.08;;;;;;;1.05;100.00;100614.78;5034633;28;20100;-72
2021/12/25 03:44:28;;;;;;;48.80;20.83;;;;;;;1.10;100.00;100617.50;5034434;28;20044;-71
2021/12/25 03:46:58;;;;;;;55.80;20.98;;;;;;;1.09;100.00;100626.63;5033963;28;20033;-71
2021/12/25 03:49:34;;;;;;;44.80;20.75;;;;;;;1.09;100.00;100618.59;5034425;28;20036;-72
2021/12/25 03:57:52;;;;;;;40.28;18.33;;;;;;;0.96;100.00;100617.06;5033334;28;20051;-69
2021/12/25 04:00:27;;;;;;;45.55;20.08;;;;;;;1.04;100.00;100623.88;5032968;28;20322;-71
2021/12/25 04:02:57;;;;;;;47.55;20.63;;;;;;;1.01;100.00;100635.09;5022098;28;20068;-71
2021/12/25 04:05:35;;;;;;;48.63;20.17;;;;;;;1.10;100.00;100628.25;4998764;28;20071;-72
2021/12/25 04:08:04;;;;;;;44.97;18.90;;;;;;;1.11;100.00;100629.91;4997065;28;20329;-71
2021/12/25 04:10:34;;;;;;;46.30;20.58;;;;;;;0.96;100.00;100637.69;5013547;28;20122;-72
2021/12/25 04:13:01;;;;;;;37.95;17.65;;;;;;;1.02;100.00;100636.72;4997029;28;20873;-71
2021/12/25 04:15:27;;;;;;;39.50;17.63;;;;;;;0.98;100.00;100641.78;5014642;28;20504;-71
2021/12/25 04:17:52;;;;;;;37.17;16.50;;;;;;;0.84;100.00;100637.78;5012972;28;20042;-72
2021/12/25 04:20:19;;;;;;;34.40;16.05;;;;;;;1.01;100.00;100635.09;5012592;28;20034;-71
2021/12/25 04:22:50;;;;;;;35.60;14.73;;;;;;;0.81;100.00;100636.41;5013202;28;20124;-71
2021/12/25 04:25:22;;;;;;;33.75;16.85;;;;;;;0.92;100.00;100641.94;5012275;28;20072;-72
2021/12/25 04:27:48;;;;;;;42.75;17.10;;;;;;;0.85;100.00;100642.94;5013761;28;20045;-71
2021/12/25 04:42:48;;;;;;;33.65;15.05;;;;;;;0.75;100.00;100663.41;5013608;28;20072;-71
2021/12/25 05:06:17;;;;;;;9.85;6.55;;;;;;;0.17;100.00;100719.75;5044492;28;20056;-71
2021/12/25 05:08:42;;;;;;;15.20;6.63;;;;;;;0.20;100.00;100715.78;5042171;28;20028;-71
2021/12/25 05:11:08;;;;;;;12.95;6.53;;;;;;;0.15;100.00;100723.75;5042825;28;20047;-71
2021/12/25 05:13:34;;;;;;;6.68;3.38;;;;;;;0.04;100.00;100722.72;5023928;28;20045;-69
2021/12/25 05:16:00;;;;;;;8.35;4.38;;;;;;;-0.13;100.00;100728.00;5040991;28;20037;-71
2021/12/25 05:18:26;;;;;;;8.75;5.45;;;;;;;0.16;100.00;100726.19;5042188;28;20067;-71
2021/12/25 05:20:51;;;;;;;9.77;5.40;;;;;;;-0.04;100.00;100718.53;5026806;28;20033;-72
2021/12/25 05:23:17;;;;;;;9.75;4.80;;;;;;;-0.10;100.00;100729.38;5044054;28;20108;-70
2021/12/25 05:25:43;;;;;;;9.80;5.40;;;;;;;-0.06;100.00;100728.69;5041280;28;20147;-70
2021/12/25 05:28:08;;;;;;;9.00;4.60;;;;;;;-0.21;100.00;100740.94;5039864;28;20041;-70
2021/12/25 05:30:34;;;;;;;7.97;4.78;;;;;;;-0.17;100.00;100742.09;5037905;28;20041;-70
2021/12/25 05:33:20;;;;;;;7.60;4.68;;;;;;;-0.14;100.00;100741.63;5039358;28;20091;-70
2021/12/25 05:36:06;;;;;;;7.07;4.03;;;;;;;-0.24;100.00;100743.03;5040737;28;20127;-70
2021/12/25 05:38:43;;;;;;;8.85;6.28;;;;;;;-0.22;100.00;100753.53;5039806;28;20384;-70
2021/12/25 05:41:16;;;;;;;15.90;4.88;;;;;;;-0.34;100.00;100753.53;5038993;28;20044;-70
2021/12/25 05:43:42;;;;;;;10.45;6.03;;;;;;;-0.38;100.00;100751.53;5036482;28;20063;-70
2021/12/25 05:46:10;;;;;;;8.05;5.20;;;;;;;-0.53;100.00;100752.00;5036120;28;20037;-70
2021/12/25 05:48:40;;;;;;;11.45;5.38;;;;;;;-0.44;100.00;100749.78;5031029;28;20033;-69
2021/12/25 05:51:28;;;;;;;13.70;4.30;;;;;;;-0.71;100.00;100758.28;5017262;28;20458;-70
2021/12/25 05:54:12;;;;;;;8.25;4.82;;;;;;;-0.50;100.00;100760.38;5016921;28;20068;-70
2021/12/25 05:56:56;;;;;;;9.13;5.93;;;;;;;-0.54;100.00;100753.88;5015937;28;20955;-70
2021/12/25 06:00:00;;;;;;;10.20;5.85;;;;;;;-0.31;100.00;100763.78;5013511;28;20519;-70
2021/12/25 06:02:41;;;;;;;13.02;6.65;;;;;;;-0.46;100.00;100761.56;5023768;28;20045;-70
2021/12/25 06:05:09;;;;;;;8.52;5.38;;;;;;;-0.59;100.00;100760.97;5015893;28;20064;-70
2021/12/25 06:07:36;;;;;;;11.43;6.45;;;;;;;-0.50;100.00;100765.72;5032427;28;20029;-70
2021/12/25 06:10:06;;;;;;;9.48;6.53;;;;;;;-0.74;100.00;100756.06;5033467;28;20047;-70
2021/12/25 06:12:32;;;;;;;13.80;6.80;;;;;;;-0.60;100.00;100773.53;5031554;28;20447;-71
2021/12/25 06:15:01;;;;;;;9.57;6.80;;;;;;;-0.76;100.00;100772.34;5031018;28;20045;-71
2021/12/25 06:17:47;;;;;;;12.55;6.15;;;;;;;-0.82;100.00;100783.16;5032202;28;20126;-70
2021/12/25 06:20:21;;;;;;;10.02;5.45;;;;;;;-0.82;100.00;100777.81;5031610;28;20700;-72
2021/12/25 06:22:49;;;;;;;11.75;6.88;;;;;;;-0.57;100.00;100782.97;5033010;28;20463;-70
2021/12/25 06:25:21;;;;;;;11.77;7.37;;;;;;;-0.81;100.00;100779.47;5031058;28;20056;-70
2021/12/25 06:28:07;;;;;;;11.52;7.82;;;;;;;-0.75;100.00;100789.25;5031107;28;20055;-71
2021/12/25 06:30:45;;;;;;;11.65;6.50;;;;;;;-0.83;100.00;100792.25;5031641;28;20486;-71
2021/12/25 06:33:17;;;;;;;12.82;6.90;;;;;;;-0.77;100.00;100796.69;5030578;28;20094;-70
2021/12/25 06:35:45;;;;;;;10.73;6.93;;;;;;;-0.80;100.00;100802.50;5032303;28;20111;-70
2021/12/25 06:38:23;;;;;;;12.43;6.82;;;;;;;-0.80;100.00;100807.84;5015902;28;20523;-70
2021/12/25 06:41:12;;;;;;;12.30;6.95;;;;;;;-0.84;100.00;100801.31;5030366;28;20599;-70
2021/12/25 06:43:39;;;;;;;13.00;7.63;;;;;;;-0.76;100.00;100809.00;5031990;28;20059;-70
2021/12/25 06:46:06;;;;;;;10.98;6.65;;;;;;;-0.89;100.00;100820.75;5030870;28;20041;-71
2021/12/25 06:48:31;;;;;;;8.88;6.70;;;;;;;-0.95;100.00;100827.81;5010698;28;20049;-70
2021/12/25 06:51:25;;;;;;;9.32;5.60;;;;;;;-1.07;100.00;100823.50;5010402;28;20072;-70
2021/12/25 06:54:08;;;;;;;11.13;6.97;;;;;;;-1.06;100.00;100823.25;5014716;28;20089;-71
2021/12/25 06:56:44;;;;;;;11.25;7.13;;;;;;;-1.02;100.00;100827.13;5016491;28;20083;-71
2021/12/25 06:59:16;;;;;;;12.57;7.80;;;;;;;-0.95;100.00;100830.50;5013645;28;20127;-70
2021/12/25 07:01:43;;;;;;;13.32;6.88;;;;;;;-1.04;100.00;100828.38;5014727;28;20072;-70
2021/12/25 07:04:21;;;;;;;11.95;6.22;;;;;;;-1.15;100.00;100838.00;5014705;28;20049;-70
2021/12/25 07:07:17;;;;;;;21.83;6.85;;;;;;;-1.22;100.00;100837.25;5014921;28;20425;-70
2021/12/25 07:10:02;;;;;;;8.43;5.45;;;;;;;-1.39;100.00;100840.56;5016091;28;20552;-70
2021/12/25 07:12:48;;;;;;;10.02;6.72;;;;;;;-1.30;100.00;100840.25;5015892;28;20060;-70
2021/12/25 07:15:49;;;;;;;7.82;4.90;;;;;;;-1.47;100.00;100830.16;5012500;28;20142;-70
2021/12/25 07:18:33;;;;;;;11.63;6.38;;;;;;;-1.30;100.00;100837.56;5015669;28;20986;-70
2021/12/25 07:21:38;;;;;;;9.73;5.53;;;;;;;-1.49;100.00;100840.25;5012360;28;20503;-70
2021/12/25 07:24:29;;;;;;;10.02;6.53;;;;;;;-1.50;100.00;100848.50;4990113;28;20152;-70
2021/12/25 07:27:17;;;;;;;12.30;7.75;;;;;;;-1.48;100.00;100849.94;5014266;28;20054;-69
2021/12/25 07:29:53;;;;;;;9.82;6.28;;;;;;;-1.59;100.00;100850.66;5016005;28;20073;-69
2021/12/25 07:32:19;;;;;;;9.82;6.15;;;;;;;-1.71;100.00;100855.13;5015728;28;20167;-69
2021/12/25 07:34:48;;;;;;;18.50;7.32;;;;;;;-1.51;100.00;100860.22;5015684;28;20037;-69
2021/12/25 07:37:14;;;;;;;13.57;7.85;;;;;;;-1.43;100.00;100857.25;5013177;28;20571;-70
2021/12/25 07:39:41;;;;;;;15.73;8.15;;;;;;;-1.39;100.00;100853.94;5013958;28;20444;-69
2021/12/25 07:42:07;;;;;;;10.45;6.70;;;;;;;-1.45;100.00;100864.72;5014097;28;20608;-70
2021/12/25 07:44:55;;;;;;;15.93;8.02;;;;;;;-1.55;100.00;100859.88;5014978;28;20075;-69
2021/12/25 07:47:22;;;;;;;11.52;7.18;;;;;;;-1.62;100.00;100872.50;5032710;28;20040;-70
2021/12/25 07:49:49;;;;;;;12.00;7.22;;;;;;;-1.73;100.00;100868.69;5021507;28;20467;-70
2021/12/25 07:52:15;;;;;;;13.55;7.05;;;;;;;-1.68;100.00;100878.75;5015878;28;20052;-70
2021/12/25 07:54:41;;;;;;;12.73;7.53;;;;;;;-1.75;100.00;100865.41;5015055;28;20049;-70
2021/12/25 07:57:06;;;;;;;13.75;7.10;;;;;;;-1.84;100.00;100883.59;5013648;28;20041;-70
2021/12/25 07:59:32;;;;;;;11.82;7.40;;;;;;;-1.73;100.00;100883.94;5017478;28;20059;-70
2021/12/25 08:01:57;;;;;;;15.40;8.00;;;;;;;-1.75;100.00;100886.00;5017109;28;20120;-70
2021/12/25 08:04:22;;;;;;;11.45;7.00;;;;;;;-1.92;100.00;100886.56;5035002;28;20045;-70
2021/12/25 08:06:48;;;;;;;12.77;6.45;;;;;;;-2.04;100.00;100904.34;5034939;28;20043;-70
2021/12/25 08:09:15;;;;;;;10.82;6.55;;;;;;;-1.98;100.00;100895.44;5033354;28;20044;-70
2021/12/25 08:11:41;;;;;;;13.93;6.70;;;;;;;-1.97;100.00;100888.28;5016858;28;20076;-70
2021/12/25 08:14:06;;;;;;;9.40;6.30;;;;;;;-2.06;100.00;100887.72;5035583;28;20121;-70
2021/12/25 08:16:31;;;;;;;9.30;6.40;;;;;;;-2.09;100.00;100904.19;5034129;28;20080;-69
2021/12/25 08:18:57;;;;;;;6.82;5.35;;;;;;;-2.19;100.00;100906.53;5034075;28;20116;-71
2021/12/25 08:21:41;;;;;;;8.52;6.03;;;;;;;-2.17;100.00;100901.78;5035748;28;20071;-69
2021/12/25 08:24:25;;;;;;;9.10;4.93;;;;;;;-2.31;100.00;100904.56;5033820;28;20520;-71
2021/12/25 08:27:22;;;;;;;11.32;5.43;;;;;;;-2.18;100.00;100905.47;5033303;28;20041;-71
2021/12/25 08:30:11;;;;;;;7.68;4.70;;;;;;;-2.31;100.00;100907.22;5022303;28;20125;-69
2021/12/25 08:32:57;;;;;;;8.55;4.60;;;;;;;-2.31;100.00;100909.91;5034163;28;20103;-69
2021/12/25 08:35:40;;;;;;;6.90;4.28;;;;;;;-2.49;100.00;100906.34;5034212;28;20550;-69
2021/12/25 08:38:06;;;;;;;7.55;3.75;;;;;;;-2.33;100.00;100913.81;5033444;28;20044;-68
2021/12/25 08:40:31;;;;;;;5.47;2.75;;;;;;;-2.54;100.00;100920.34;5033119;28;20110;-69
2021/12/25 08:43:01;;;;;;;7.82;3.20;;;;;;;-2.38;100.00;100917.16;5033864;28;20032;-69
2021/12/25 08:45:40;;;;;;;4.50;3.13;;;;;;;-2.51;100.00;100915.38;5034235;28;20087;-69
2021/12/25 08:48:10;;;;;;;5.20;2.35;;;;;;;-2.46;100.00;100916.59;5031813;28;20047;-70
2021/12/25 08:50:36;;;;;;;3.88;2.47;;;;;;;-2.50;100.00;100929.56;5027226;28;20044;-69
2021/12/25 08:53:02;;;;;;;7.47;2.97;;;;;;;-2.28;100.00;100925.50;5032786;28;20105;-69
2021/12/25 08:55:27;;;;;;;4.53;2.97;;;;;;;-2.41;100.00;100936.28;5030733;28;20052;-69
2021/12/25 08:57:53;;;;;;;6.15;2.88;;;;;;;-2.32;100.00;100940.31;5030158;28;20044;-69
2021/12/25 09:00:19;;;;;;;3.60;2.38;;;;;;;-2.43;100.00;100949.03;5031770;28;20419;-69
2021/12/25 09:02:46;;;;;;;4.18;2.10;;;;;;;-2.47;100.00;100955.00;5032454;28;20398;-69
2021/12/25 09:05:12;;;;;;;4.22;2.45;;;;;;;-2.31;100.00;100957.97;5032438;28;20040;-68
2021/12/25 09:07:37;;;;;;;5.90;2.50;;;;;;;-2.50;100.00;100950.94;5034237;28;20067;-69
2021/12/25 09:10:04;;;;;;;4.15;2.80;;;;;;;-2.34;100.00;100947.72;5030308;28;20037;-69
2021/12/25 09:12:29;;;;;;;3.50;2.03;;;;;;;-2.61;100.00;100970.28;5043887;28;20633;-69
2021/12/25 09:14:55;;;;;;;6.80;2.72;;;;;;;-2.55;100.00;100966.75;5034909;28;20053;-70
2021/12/25 09:17:20;;;;;;;4.85;2.75;;;;;;;-2.54;100.00;100958.53;5046012;28;20049;-69
2021/12/25 09:19:45;;;;;;;3.05;1.73;;;;;;;-2.30;100.00;100956.13;5039989;28;20119;-70
2021/12/25 09:22:12;;;;;;;4.63;1.85;;;;;;;-2.41;100.00;100967.50;5040204;28;20082;-69
2021/12/25 09:24:38;;;;;;;2.42;1.77;;;;;;;-2.23;100.00;100967.59;5046469;28;20131;-69
2021/12/25 09:27:05;;;;;;;3.88;2.17;;;;;;;-2.16;100.00;100964.88;5022950;28;20095;-69
2021/12/25 09:29:31;;;;;;;5.38;2.30;;;;;;;-2.10;100.00;100974.69;5044758;28;20037;-69
2021/12/25 09:31:56;;;;;;;7.65;2.72;;;;;;;-2.11;100.00;100975.72;5037767;28;20064;-70
2021/12/25 09:34:23;;;;;;;4.25;2.00;;;;;;;-2.18;100.00;100972.28;5049357;28;20311;-70
2021/12/25 09:36:48;;;;;;;2.75;1.85;;;;;;;-2.11;100.00;100978.41;5033728;28;20071;-70
2021/12/25 09:39:13;;;;;;;3.17;1.90;;;;;;;-2.06;100.00;100975.91;5047776;28;20110;-71
2021/12/25 09:41:39;;;;;;;2.38;1.60;;;;;;;-2.02;100.00;100977.09;5037013;28;20490;-72
2021/12/25 09:44:05;;;;;;;4.10;1.83;;;;;;;-1.92;100.00;100982.78;5039322;28;20144;-70
2021/12/25 09:46:31;;;;;;;2.53;1.48;;;;;;;-2.09;100.00;100976.34;5009845;28;20347;-71
2021/12/25 09:48:57;;;;;;;3.10;1.88;;;;;;;-1.83;100.00;100997.53;5047046;28;20446;-71
2021/12/25 09:51:23;;;;;;;3.00;1.70;;;;;;;-1.88;100.00;100989.31;5032387;28;20116;-70
2021/12/25 09:53:59;;;;;;;2.78;1.67;;;;;;;-1.88;100.00;100997.34;5040263;28;20055;-71
2021/12/25 09:56:26;;;;;;;3.90;1.92;;;;;;;-1.86;100.00;100981.91;5039046;28;20045;-72
2021/12/25 09:58:52;;;;;;;2.92;1.25;;;;;;;-2.01;100.00;100993.94;5047756;28;20458;-71
2021/12/25 10:01:41;;;;;;;5.85;1.48;;;;;;;-1.71;100.00;100992.28;5035546;28;20047;-70
2021/12/25 10:04:09;;;;;;;2.78;1.50;;;;;;;-1.80;100.00;101000.78;5033622;28;20327;-71
2021/12/25 10:06:40;;;;;;;3.70;1.27;;;;;;;-1.90;100.00;101007.44;5041310;28;20488;-71
2021/12/25 10:09:20;;;;;;;1.60;1.27;;;;;;;-1.85;100.00;100999.59;5034529;28;20509;-71
2021/12/25 10:12:13;;;;;;;2.92;1.10;;;;;;;-1.77;100.00;101000.38;5024460;28;20044;-70
2021/12/25 10:14:43;;;;;;;3.47;1.33;;;;;;;-1.71;100.00;100994.16;5050569;28;20036;-69
2021/12/25 10:17:17;;;;;;;1.40;1.30;;;;;;;-1.70;100.00;100993.09;5017934;28;20549;-70
2021/12/25 10:19:58;;;;;;;2.08;1.42;;;;;;;-1.55;100.00;101001.59;5036173;28;20033;-70
2021/12/25 10:22:23;;;;;;;3.08;1.50;;;;;;;-1.62;100.00;101004.34;5037802;28;20048;-70
2021/12/25 10:25:07;;;;;;;1.95;0.93;;;;;;;-1.61;100.00;101005.97;5039827;28;20416;-70
2021/12/25 10:27:33;;;;;;;4.68;1.70;;;;;;;-1.63;100.00;101004.53;5045133;28;20492;-71
2021/12/25 10:30:00;;;;;;;5.65;1.38;;;;;;;-1.48;100.00;101005.03;5042749;28;20493;-70
2021/12/25 10:32:26;;;;;;;1.42;1.33;;;;;;;-1.71;100.00;100994.16;5042010;28;20075;-71
2021/12/25 10:34:53;;;;;;;2.60;1.60;;;;;;;-1.52;100.00;101003.81;5036593;28;20040;-71
2021/12/25 10:37:20;;;;;;;3.17;1.27;;;;;;;-1.60;100.00;100996.06;5015077;28;20471;-71
2021/12/25 10:39:47;;;;;;;1.92;1.30;;;;;;;-1.53;100.00;101012.91;5039766;28;20032;-71
2021/12/25 10:42:20;;;;;;;3.45;1.65;;;;;;;-1.47;100.00;101005.84;5046445;28;20037;-71
2021/12/25 10:44:51;;;;;;;5.00;1.50;;;;;;;-1.35;100.00;101008.63;5042924;28;20464;-71
2021/12/25 10:47:23;;;;;;;2.40;1.48;;;;;;;-1.39;100.00;100995.69;5037081;28;20036;-73
2021/12/25 10:50:02;;;;;;;1.75;1.02;;;;;;;-1.44;100.00;101000.88;5044157;28;20230;-71
2021/12/25 10:52:39;;;;;;;4.50;1.25;;;;;;;-1.07;100.00;101000.94;5042785;28;20041;-70
2021/12/25 10:55:14;;;;;;;6.38;1.38;;;;;;;-1.05;100.00;100998.81;5045715;28;20063;-71
2021/12/25 10:57:43;;;;;;;3.10;1.38;;;;;;;-1.16;100.00;100994.25;5043055;28;20498;-72
2021/12/25 11:00:25;;;;;;;1.98;1.63;;;;;;;-1.21;100.00;100994.06;5037870;28;20940;-72
2021/12/25 11:03:01;;;;;;;1.52;1.42;;;;;;;-1.34;100.00;100978.16;5043475;28;20045;-71
2021/12/25 11:05:33;;;;;;;2.97;1.40;;;;;;;-1.28;100.00;100977.25;5042605;28;20770;-72
2021/12/25 11:08:07;;;;;;;1.20;0.82;;;;;;;-1.20;100.00;100974.31;5044898;28;20132;-70
2021/12/25 11:10:45;;;;;;;2.67;1.15;;;;;;;-1.18;100.00;100977.59;5045655;28;20044;-72
2021/12/25 11:13:27;;;;;;;6.88;1.85;;;;;;;-1.34;100.00;100972.81;5043771;28;20492;-70
2021/12/25 11:16:03;;;;;;;1.42;1.05;;;;;;;-1.22;100.00;100971.88;5022469;28;20053;-71
2021/12/25 11:18:29;;;;;;;2.28;1.25;;;;;;;-0.94;100.00;100963.28;5030038;28;20039;-71
2021/12/25 11:20:56;;;;;;;2.40;1.55;;;;;;;-1.14;100.00;100960.03;5042120;28;20124;-71
2021/12/25 11:23:21;;;;;;;2.13;0.88;;;;;;;-1.15;100.00;100956.53;5030101;28;20501;-71
2021/12/25 11:25:47;;;;;;;2.88;0.90;;;;;;;-1.17;100.00;100968.50;5047992;28;20059;-72
2021/12/25 11:28:15;;;;;;;1.67;1.05;;;;;;;-1.11;100.00;100967.59;5038544;28;20044;-72
2021/12/25 11:30:44;;;;;;;2.13;1.23;;;;;;;-1.07;100.00;100958.09;5055031;28;20567;-71
2021/12/25 11:33:11;;;;;;;2.05;1.30;;;;;;;-0.79;100.00;100962.09;5046796;28;20048;-71
2021/12/25 11:35:38;;;;;;;3.08;1.15;;;;;;;-0.82;100.00;100965.22;5044049;28;20358;-70
2021/12/25 11:38:06;;;;;;;3.80;1.60;;;;;;;-0.77;100.00;100962.69;5053224;28;20530;-72
2021/12/25 11:40:35;;;;;;;1.42;0.80;;;;;;;-0.75;100.00;100955.25;5052777;28;20488;-72
2021/12/25 11:43:03;;;;;;;3.17;1.20;;;;;;;-0.71;100.00;100961.78;5034141;28;20035;-71
2021/12/25 11:45:41;;;;;;;3.45;1.20;;;;;;;-0.87;100.00;100957.03;5029743;28;20044;-72
2021/12/25 11:48:20;;;;;;;2.78;1.65;;;;;;;-0.72;100.00;100954.81;5013947;28;20536;-72
2021/12/25 11:50:49;;;;;;;1.33;1.00;;;;;;;-0.79;100.00;100959.41;5014165;28;20083;-72
2021/12/25 11:53:27;;;;;;;2.88;1.27;;;;;;;-0.70;100.00;100953.53;5019144;28;20105;-71
2021/12/25 11:58:40;;;;;;;2.47;1.27;;;;;;;-0.71;100.00;100954.56;5038520;28;20452;-71
2021/12/25 12:01:24;;;;;;;4.38;1.23;;;;;;;-0.78;100.00;100958.38;5034112;28;20064;-72
2021/12/25 12:04:05;;;;;;;4.53;1.10;;;;;;;-0.70;100.00;100953.53;5042370;28;20039;-70
2021/12/25 12:06:46;;;;;;;2.22;1.25;;;;;;;-0.52;100.00;100960.72;5040189;28;20045;-70
2021/12/25 12:09:12;;;;;;;2.20;1.30;;;;;;;-0.59;100.00;100962.66;5050243;28;20049;-71
2021/12/25 12:12:19;;;;;;;2.70;1.20;;;;;;;-0.74;100.00;100962.25;5045046;28;20037;-71
2021/12/25 12:15:13;;;;;;;4.75;1.55;;;;;;;-0.54;100.00;100957.44;5014638;28;20136;-71
2021/12/25 12:17:58;;;;;;;2.70;1.15;;;;;;;-0.64;100.00;100959.84;5022664;28;20133;-71
2021/12/25 12:20:41;;;;;;;1.25;1.00;;;;;;;-0.65;100.00;100955.53;5018026;28;20368;-72
2021/12/25 12:23:39;;;;;;;4.07;1.15;;;;;;;-0.29;100.00;100959.13;5039908;28;20056;-71
2021/12/25 12:26:09;;;;;;;4.50;1.35;;;;;;;-0.35;100.00;100966.25;5057035;28;20033;-71
2021/12/25 12:28:52;;;;;;;1.35;1.05;;;;;;;-0.35;100.00;100960.91;5061611;28;20045;-70
2021/12/25 12:31:34;;;;;;;3.05;1.60;;;;;;;-0.37;100.00;100956.81;5041007;28;20061;-70
2021/12/25 12:34:00;;;;;;;1.77;1.42;;;;;;;-0.21;100.00;100950.78;5033291;28;20077;-71
2021/12/25 12:36:27;;;;;;;6.63;1.88;;;;;;;-0.29;100.00;100961.81;5031633;28;20072;-70
2021/12/25 12:39:12;;;;;;;5.97;1.73;;;;;;;-0.28;100.00;100972.31;5034113;28;20557;-71
2021/12/25 12:41:43;;;;;;;3.95;2.05;;;;;;;-0.37;100.00;100968.34;5031836;28;20037;-71
2021/12/25 12:44:11;;;;;;;2.53;1.27;;;;;;;-0.40;100.00;100979.50;5038332;28;20128;-72